createdAt,value
2016-08-20T00:00:08.054Z,0
2016-08-20T00:01:08.055Z,0
2016-08-20T00:02:08.055Z,0
2016-08-20T00:03:08.051Z,0
2016-08-20T00:04:07.334Z,0
2016-08-20T00:05:07.334Z,0
2016-08-20T00:06:06.634Z,0
2016-08-20T00:07:08.063Z,0
2016-08-20T00:08:07.334Z,0
2016-08-20T00:09:08.055Z,0
2016-08-20T00:10:08.055Z,0
2016-08-20T00:11:06.618Z,0
2016-08-20T00:12:08.059Z,0
2016-08-20T00:13:08.054Z,0
2016-08-20T00:14:07.334Z,0
2016-08-20T00:15:07.334Z,0
2016-08-20T00:16:08.054Z,0
2016-08-20T00:17:08.062Z,0
2016-08-20T00:18:08.054Z,0
2016-08-20T00:19:08.058Z,0
2016-08-20T00:20:08.059Z,0
2016-08-20T00:21:08.062Z,0
2016-08-20T00:22:08.059Z,0
2016-08-20T00:23:08.058Z,0
2016-08-20T00:24:08.063Z,0
2016-08-20T00:25:07.338Z,0
2016-08-20T00:26:08.063Z,0
2016-08-20T00:27:07.338Z,0
2016-08-20T00:28:08.068Z,0
2016-08-20T00:29:08.067Z,0
2016-08-20T00:30:07.335Z,0
2016-08-20T00:31:08.063Z,0
2016-08-20T00:32:07.339Z,0
2016-08-20T00:33:07.396Z,0
2016-08-20T00:34:08.059Z,0
2016-08-20T00:35:08.064Z,0
2016-08-20T00:36:07.346Z,0
2016-08-20T00:37:08.064Z,0
2016-08-20T00:38:08.064Z,0
2016-08-20T00:39:07.355Z,0
2016-08-20T00:40:07.354Z,0
2016-08-20T00:41:08.063Z,0
2016-08-20T00:42:07.344Z,0
2016-08-20T00:43:07.344Z,0
2016-08-20T00:44:07.351Z,0
2016-08-20T00:45:08.068Z,0
2016-08-20T00:46:08.063Z,0
2016-08-20T00:47:08.063Z,0
2016-08-20T00:48:07.344Z,0
2016-08-20T00:49:08.064Z,0
2016-08-20T00:50:08.065Z,0
2016-08-20T00:51:08.064Z,0
2016-08-20T00:52:07.344Z,0
2016-08-20T00:53:07.345Z,0
2016-08-20T00:54:07.352Z,0
2016-08-20T00:55:08.070Z,0
2016-08-20T00:56:08.064Z,0
2016-08-20T00:57:08.064Z,0
2016-08-20T00:58:08.072Z,0
2016-08-20T00:59:06.628Z,0
2016-08-20T01:00:07.352Z,0
2016-08-20T01:01:08.068Z,0
2016-08-20T01:02:07.365Z,0
2016-08-20T01:03:08.076Z,0
2016-08-20T01:04:08.076Z,0
2016-08-20T01:05:07.352Z,0
2016-08-20T01:06:08.068Z,0
2016-08-20T01:07:08.073Z,0
2016-08-20T01:08:07.349Z,0
2016-08-20T01:09:06.632Z,0
2016-08-20T01:10:08.069Z,0
2016-08-20T01:11:08.068Z,0
2016-08-20T01:12:08.069Z,0
2016-08-20T01:13:08.069Z,0
2016-08-20T01:14:07.349Z,0
2016-08-20T01:15:06.637Z,0
2016-08-20T01:16:08.076Z,0
2016-08-20T01:17:08.069Z,0
2016-08-20T01:18:08.069Z,0
2016-08-20T01:19:07.349Z,0
2016-08-20T01:20:07.349Z,0
2016-08-20T01:21:08.068Z,0
2016-08-20T01:22:08.070Z,0
2016-08-20T01:23:08.069Z,0
2016-08-20T01:24:08.077Z,0
2016-08-20T01:25:08.069Z,0
2016-08-20T01:26:07.349Z,0
2016-08-20T01:27:07.366Z,0
2016-08-20T01:28:07.350Z,0
2016-08-20T01:29:07.353Z,0
2016-08-20T01:30:08.077Z,0
2016-08-20T01:31:08.073Z,0
2016-08-20T01:32:08.074Z,0
2016-08-20T01:33:08.074Z,0
2016-08-20T01:34:08.122Z,0
2016-08-20T01:35:08.074Z,0
2016-08-20T01:36:06.633Z,0
2016-08-20T01:37:08.074Z,0
2016-08-20T01:38:08.074Z,0
2016-08-20T01:39:08.074Z,0
2016-08-20T01:40:08.071Z,0
2016-08-20T01:41:07.353Z,0
2016-08-20T01:42:08.074Z,0
2016-08-20T01:43:08.074Z,0
2016-08-20T01:44:08.074Z,0
2016-08-20T01:45:08.075Z,0
2016-08-20T01:46:08.074Z,0
2016-08-20T01:47:08.090Z,0
2016-08-20T01:48:08.074Z,0
2016-08-20T01:49:07.358Z,0
2016-08-20T01:50:08.071Z,0
2016-08-20T01:51:08.074Z,0
2016-08-20T01:52:07.354Z,0
2016-08-20T01:53:08.075Z,0
2016-08-20T01:54:08.074Z,0
2016-08-20T01:55:08.075Z,0
2016-08-20T01:56:08.074Z,0
2016-08-20T01:57:08.074Z,0
2016-08-20T01:58:08.074Z,0
2016-08-20T01:59:06.639Z,0
2016-08-20T02:00:07.363Z,0
2016-08-20T02:01:08.074Z,0
2016-08-20T02:02:08.083Z,0
2016-08-20T02:03:07.360Z,0
2016-08-20T02:04:08.074Z,0
2016-08-20T02:05:07.368Z,0
2016-08-20T02:06:08.078Z,0
2016-08-20T02:07:08.078Z,0
2016-08-20T02:08:08.078Z,0
2016-08-20T02:09:08.080Z,0
2016-08-20T02:10:07.371Z,0
2016-08-20T02:11:08.079Z,0
2016-08-20T02:12:08.079Z,0
2016-08-20T02:13:07.359Z,0
2016-08-20T02:14:07.364Z,0
2016-08-20T02:15:08.079Z,0
2016-08-20T02:16:07.359Z,0
2016-08-20T02:17:08.080Z,0
2016-08-20T02:18:07.359Z,0
2016-08-20T02:19:07.360Z,0
2016-08-20T02:20:08.092Z,0
2016-08-20T02:21:08.083Z,0
2016-08-20T02:22:08.079Z,0
2016-08-20T02:23:07.359Z,0
2016-08-20T02:24:08.079Z,0
2016-08-20T02:25:07.360Z,0
2016-08-20T02:26:07.359Z,0
2016-08-20T02:27:08.080Z,0
2016-08-20T02:28:07.368Z,0
2016-08-20T02:29:08.088Z,0
2016-08-20T02:30:08.080Z,0
2016-08-20T02:31:08.084Z,0
2016-08-20T02:32:08.100Z,0
2016-08-20T02:33:08.131Z,0
2016-08-20T02:34:08.083Z,0
2016-08-20T02:35:08.084Z,0
2016-08-20T02:36:08.088Z,0
2016-08-20T02:37:07.364Z,0
2016-08-20T02:38:08.085Z,0
2016-08-20T02:39:08.085Z,0
2016-08-20T02:40:06.644Z,0
2016-08-20T02:41:07.363Z,0
2016-08-20T02:42:08.091Z,0
2016-08-20T02:43:08.081Z,0
2016-08-20T02:44:08.084Z,0
2016-08-20T02:45:08.089Z,0
2016-08-20T02:46:08.084Z,0
2016-08-20T02:47:07.369Z,0
2016-08-20T02:48:08.093Z,0
2016-08-20T02:49:07.364Z,0
2016-08-20T02:50:08.085Z,0
2016-08-20T02:51:08.080Z,0
2016-08-20T02:52:08.084Z,0
2016-08-20T02:53:07.365Z,0
2016-08-20T02:54:08.085Z,0
2016-08-20T02:55:08.085Z,0
2016-08-20T02:56:08.084Z,0
2016-08-20T02:57:08.101Z,0
2016-08-20T02:58:08.088Z,0
2016-08-20T02:59:08.101Z,0
2016-08-20T03:00:07.369Z,0
2016-08-20T03:01:06.646Z,0
2016-08-20T03:02:07.365Z,0
2016-08-20T03:03:08.086Z,0
2016-08-20T03:04:07.370Z,0
2016-08-20T03:05:08.082Z,0
2016-08-20T03:06:07.371Z,0
2016-08-20T03:07:07.366Z,0
2016-08-20T03:08:07.366Z,0
2016-08-20T03:09:07.365Z,0
2016-08-20T03:10:07.366Z,0
2016-08-20T03:11:08.084Z,0
2016-08-20T03:12:08.090Z,0
2016-08-20T03:13:08.086Z,0
2016-08-20T03:14:08.089Z,0
2016-08-20T03:15:08.086Z,0
2016-08-20T03:16:07.370Z,0
2016-08-20T03:17:07.366Z,0
2016-08-20T03:18:08.086Z,0
2016-08-20T03:19:08.090Z,0
2016-08-20T03:20:08.090Z,0
2016-08-20T03:21:08.090Z,0
2016-08-20T03:22:07.370Z,0
2016-08-20T03:23:08.090Z,0
2016-08-20T03:24:07.379Z,0
2016-08-20T03:25:07.374Z,0
2016-08-20T03:26:08.085Z,0
2016-08-20T03:27:07.370Z,0
2016-08-20T03:28:08.090Z,0
2016-08-20T03:29:08.090Z,0
2016-08-20T03:30:08.090Z,0
2016-08-20T03:31:07.374Z,0
2016-08-20T03:32:07.382Z,0
2016-08-20T03:33:08.090Z,0
2016-08-20T03:34:08.096Z,0
2016-08-20T03:35:08.091Z,0
2016-08-20T03:36:08.086Z,0
2016-08-20T03:37:08.090Z,0
2016-08-20T03:38:07.370Z,0
2016-08-20T03:39:08.090Z,0
2016-08-20T03:40:08.090Z,0
2016-08-20T03:41:08.090Z,0
2016-08-20T03:42:07.371Z,0
2016-08-20T03:43:08.099Z,0
2016-08-20T03:44:08.090Z,0
2016-08-20T03:45:08.091Z,0
2016-08-20T03:46:08.095Z,0
2016-08-20T03:47:08.103Z,0
2016-08-20T03:48:06.654Z,0
2016-08-20T03:49:08.094Z,0
2016-08-20T03:50:08.107Z,0
2016-08-20T03:51:08.091Z,0
2016-08-20T03:52:07.372Z,0
2016-08-20T03:53:07.379Z,0
2016-08-20T03:54:08.090Z,0
2016-08-20T03:55:07.379Z,0
2016-08-20T03:56:07.371Z,0
2016-08-20T03:57:08.099Z,0
2016-08-20T03:58:08.107Z,0
2016-08-20T03:59:08.091Z,4
2016-08-20T04:00:08.091Z,4
2016-08-20T04:01:08.092Z,4
2016-08-20T04:02:08.113Z,4
2016-08-20T04:03:08.092Z,4
2016-08-20T04:04:07.367Z,4
2016-08-20T04:05:08.095Z,8
2016-08-20T04:06:07.372Z,4
2016-08-20T04:07:08.091Z,8
2016-08-20T04:08:07.387Z,8
2016-08-20T04:09:08.100Z,12
2016-08-20T04:10:08.091Z,12
2016-08-20T04:11:08.092Z,16
2016-08-20T04:12:07.372Z,20
2016-08-20T04:13:07.371Z,20
2016-08-20T04:14:08.091Z,24
2016-08-20T04:15:08.091Z,28
2016-08-20T04:16:08.092Z,32
2016-08-20T04:17:07.379Z,32
2016-08-20T04:18:08.108Z,36
2016-08-20T04:19:08.095Z,40
2016-08-20T04:20:07.376Z,44
2016-08-20T04:21:08.095Z,48
2016-08-20T04:22:07.395Z,52
2016-08-20T04:23:08.100Z,56
2016-08-20T04:24:06.668Z,64
2016-08-20T04:25:08.092Z,76
2016-08-20T04:26:08.091Z,80
2016-08-20T04:27:08.108Z,92
2016-08-20T04:28:08.096Z,104
2016-08-20T04:29:07.372Z,108
2016-08-20T04:30:08.092Z,124
2016-08-20T04:31:07.372Z,136
2016-08-20T04:32:08.091Z,152
2016-08-20T04:33:08.252Z,172
2016-08-20T04:34:07.375Z,192
2016-08-20T04:35:07.373Z,220
2016-08-20T04:36:07.376Z,252
2016-08-20T04:37:07.373Z,284
2016-08-20T04:38:08.097Z,304
2016-08-20T04:39:07.376Z,332
2016-08-20T04:40:08.100Z,364
2016-08-20T04:41:08.104Z,396
2016-08-20T04:42:08.092Z,432
2016-08-20T04:43:08.109Z,480
2016-08-20T04:44:07.381Z,532
2016-08-20T04:45:08.098Z,580
2016-08-20T04:46:08.092Z,628
2016-08-20T04:47:08.092Z,700
2016-08-20T04:48:07.373Z,752
2016-08-20T04:49:08.085Z,772
2016-08-20T04:50:07.375Z,816
2016-08-20T04:51:08.117Z,872
2016-08-20T04:52:07.373Z,940
2016-08-20T04:53:08.093Z,1032
2016-08-20T04:54:07.373Z,1108
2016-08-20T04:55:08.096Z,1160
2016-08-20T04:56:08.093Z,1216
2016-08-20T04:57:08.093Z,1288
2016-08-20T04:58:06.665Z,1376
2016-08-20T04:59:08.093Z,1472
2016-08-20T05:00:07.376Z,1564
2016-08-20T05:01:07.388Z,1660
2016-08-20T05:02:08.097Z,1756
2016-08-20T05:03:07.376Z,1856
2016-08-20T05:04:08.097Z,1940
2016-08-20T05:05:08.097Z,2016
2016-08-20T05:06:06.656Z,2076
2016-08-20T05:07:08.098Z,2140
2016-08-20T05:08:08.096Z,2192
2016-08-20T05:09:07.377Z,2240
2016-08-20T05:10:07.377Z,2244
2016-08-20T05:11:07.378Z,2248
2016-08-20T05:12:08.098Z,2216
2016-08-20T05:13:07.377Z,2192
2016-08-20T05:14:06.657Z,2176
2016-08-20T05:15:08.097Z,2148
2016-08-20T05:16:08.104Z,2144
2016-08-20T05:17:07.381Z,2256
2016-08-20T05:18:08.117Z,3576
2016-08-20T05:19:08.105Z,2568
2016-08-20T05:20:07.382Z,2772
2016-08-20T05:21:08.101Z,3828
2016-08-20T05:22:08.101Z,4872
2016-08-20T05:23:08.102Z,4356
2016-08-20T05:24:08.101Z,4156
2016-08-20T05:25:08.105Z,5128
2016-08-20T05:26:07.382Z,7084
2016-08-20T05:27:08.101Z,8568
2016-08-20T05:28:08.102Z,8548
2016-08-20T05:29:08.121Z,8848
2016-08-20T05:30:07.389Z,8404
2016-08-20T05:31:07.398Z,6216
2016-08-20T05:32:08.106Z,7932
2016-08-20T05:33:08.105Z,8288
2016-08-20T05:34:08.109Z,9284
2016-08-20T05:35:07.396Z,3920
2016-08-20T05:36:07.394Z,3708
2016-08-20T05:37:07.391Z,4188
2016-08-20T05:38:07.399Z,3108
2016-08-20T05:39:08.113Z,3136
2016-08-20T05:40:07.394Z,3292
2016-08-20T05:41:08.117Z,3268
2016-08-20T05:42:08.118Z,3256
2016-08-20T05:43:06.683Z,3464
2016-08-20T05:44:08.117Z,4920
2016-08-20T05:45:06.699Z,9176
2016-08-20T05:46:08.130Z,7416
2016-08-20T05:47:07.403Z,6756
2016-08-20T05:48:08.126Z,5052
2016-08-20T05:49:08.126Z,6584
2016-08-20T05:50:07.411Z,6608
2016-08-20T05:51:07.410Z,6112
2016-08-20T05:52:08.129Z,10740
2016-08-20T05:53:08.138Z,11488
2016-08-20T05:54:07.414Z,6768
2016-08-20T05:55:07.430Z,5928
2016-08-20T05:56:08.142Z,9484
2016-08-20T05:57:07.419Z,18272
2016-08-20T05:58:06.707Z,15872
2016-08-20T05:59:07.423Z,19200
2016-08-20T06:00:07.426Z,13160
2016-08-20T06:01:08.151Z,4716
2016-08-20T06:02:08.158Z,4364
2016-08-20T06:03:08.150Z,4180
2016-08-20T06:04:07.435Z,4820
2016-08-20T06:05:08.155Z,4120
2016-08-20T06:06:08.162Z,3724
2016-08-20T06:07:07.439Z,3732
2016-08-20T06:08:06.727Z,3936
2016-08-20T06:09:07.451Z,4448
2016-08-20T06:10:06.734Z,13844
2016-08-20T06:11:08.177Z,21152
2016-08-20T06:12:08.187Z,22624
2016-08-20T06:13:08.186Z,23680
2016-08-20T06:14:08.183Z,24032
2016-08-20T06:15:08.179Z,25120
2016-08-20T06:16:08.181Z,25280
2016-08-20T06:17:08.197Z,25664
2016-08-20T06:18:08.189Z,24384
2016-08-20T06:19:07.471Z,23968
2016-08-20T06:20:06.763Z,22432
2016-08-20T06:21:07.475Z,24064
2016-08-20T06:22:07.479Z,24032
2016-08-20T06:23:08.200Z,25472
2016-08-20T06:24:08.204Z,26944
2016-08-20T06:25:07.492Z,27232
2016-08-20T06:26:08.212Z,27520
2016-08-20T06:27:07.496Z,27264
2016-08-20T06:28:08.228Z,28448
2016-08-20T06:29:08.224Z,26976
2016-08-20T06:30:08.227Z,28768
2016-08-20T06:31:07.512Z,27648
2016-08-20T06:32:08.244Z,27936
2016-08-20T06:33:08.287Z,26272
2016-08-20T06:34:07.528Z,28992
2016-08-20T06:35:08.260Z,26912
2016-08-20T06:36:08.252Z,27712
2016-08-20T06:37:07.540Z,26272
2016-08-20T06:38:07.543Z,24800
2016-08-20T06:39:07.552Z,24032
2016-08-20T06:40:07.553Z,26304
2016-08-20T06:41:07.557Z,29056
2016-08-20T06:42:07.564Z,30912
2016-08-20T06:43:07.565Z,33056
2016-08-20T06:44:08.297Z,32416
2016-08-20T06:45:08.308Z,33248
2016-08-20T06:46:07.585Z,33216
2016-08-20T06:47:08.304Z,33568
2016-08-20T06:48:07.600Z,31552
2016-08-20T06:49:08.332Z,23936
2016-08-20T06:50:06.880Z,21696
2016-08-20T06:51:08.332Z,23872
2016-08-20T06:52:08.332Z,23232
2016-08-20T06:53:08.337Z,24736
2016-08-20T06:54:07.629Z,30816
2016-08-20T06:55:06.912Z,33568
2016-08-20T06:56:07.640Z,30048
2016-08-20T06:57:08.361Z,30016
2016-08-20T06:58:08.365Z,32672
2016-08-20T06:59:08.372Z,29984
2016-08-20T07:00:08.377Z,33056
2016-08-20T07:01:08.382Z,34880
2016-08-20T07:02:08.388Z,30208
2016-08-20T07:03:07.673Z,29888
2016-08-20T07:04:08.401Z,27232
2016-08-20T07:05:08.413Z,31008
2016-08-20T07:06:08.417Z,29824
2016-08-20T07:07:08.418Z,26112
2016-08-20T07:08:08.425Z,25568
2016-08-20T07:09:08.433Z,26368
2016-08-20T07:10:08.438Z,23264
2016-08-20T07:11:08.446Z,27264
2016-08-20T07:12:08.453Z,20960
2016-08-20T07:13:08.458Z,21248
2016-08-20T07:14:08.465Z,18688
2016-08-20T07:15:07.753Z,14308
2016-08-20T07:16:08.477Z,12444
2016-08-20T07:17:08.485Z,12792
2016-08-20T07:18:08.494Z,16376
2016-08-20T07:19:08.498Z,29120
2016-08-20T07:20:08.510Z,39232
2016-08-20T07:21:08.518Z,30624
2016-08-20T07:22:08.521Z,46784
2016-08-20T07:23:08.525Z,20256
2016-08-20T07:24:08.541Z,22880
2016-08-20T07:25:08.537Z,23968
2016-08-20T07:26:08.553Z,33792
2016-08-20T07:27:08.562Z,13472
2016-08-20T07:28:08.561Z,10972
2016-08-20T07:29:08.569Z,24000
2016-08-20T07:30:08.569Z,12172
2016-08-20T07:31:08.582Z,8900
2016-08-20T07:32:08.595Z,8524
2016-08-20T07:33:08.605Z,8612
2016-08-20T07:34:08.601Z,8812
2016-08-20T07:35:08.610Z,9292
2016-08-20T07:36:08.615Z,13964
2016-08-20T07:37:08.631Z,9380
2016-08-20T07:38:08.630Z,8864
2016-08-20T07:39:08.642Z,8476
2016-08-20T07:40:08.642Z,8452
2016-08-20T07:41:08.658Z,7656
2016-08-20T07:42:08.656Z,7488
2016-08-20T07:43:08.666Z,7420
2016-08-20T07:44:08.666Z,7336
2016-08-20T07:45:08.670Z,7192
2016-08-20T07:46:07.958Z,6872
2016-08-20T07:47:08.682Z,6644
2016-08-20T07:48:08.693Z,6596
2016-08-20T07:49:08.698Z,6660
2016-08-20T07:50:08.902Z,6568
2016-08-20T07:51:08.710Z,6588
2016-08-20T07:52:08.710Z,6536
2016-08-20T07:53:08.718Z,6508
2016-08-20T07:54:08.722Z,6540
2016-08-20T07:55:08.735Z,6652
2016-08-20T07:56:08.734Z,6684
2016-08-20T07:57:08.744Z,6720
2016-08-20T07:58:08.749Z,6700
2016-08-20T07:59:08.751Z,6580
2016-08-20T08:00:08.775Z,6556
2016-08-20T08:01:08.758Z,6448
2016-08-20T08:02:08.764Z,6256
2016-08-20T08:03:08.770Z,6076
2016-08-20T08:04:08.778Z,5920
2016-08-20T08:05:08.783Z,5856
2016-08-20T08:06:08.783Z,5872
2016-08-20T08:07:08.799Z,5868
2016-08-20T08:08:08.794Z,5800
2016-08-20T08:09:08.799Z,5760
2016-08-20T08:10:08.804Z,5736
2016-08-20T08:11:08.815Z,5812
2016-08-20T08:12:08.814Z,6012
2016-08-20T08:13:08.830Z,6296
2016-08-20T08:14:08.823Z,6436
2016-08-20T08:15:08.827Z,6324
2016-08-20T08:16:08.834Z,6172
2016-08-20T08:17:08.119Z,6100
2016-08-20T08:18:08.839Z,6300
2016-08-20T08:19:08.852Z,6440
2016-08-20T08:20:08.855Z,6680
2016-08-20T08:21:08.867Z,7080
2016-08-20T08:22:08.859Z,7612
2016-08-20T08:23:08.868Z,8152
2016-08-20T08:24:08.867Z,8704
2016-08-20T08:25:08.867Z,9016
2016-08-20T08:26:08.876Z,8996
2016-08-20T08:27:08.880Z,8852
2016-08-20T08:28:08.887Z,8568
2016-08-20T08:29:08.892Z,8092
2016-08-20T08:30:08.902Z,7780
2016-08-20T08:31:08.912Z,7600
2016-08-20T08:32:08.904Z,7268
2016-08-20T08:33:08.244Z,7084
2016-08-20T08:34:08.912Z,6944
2016-08-20T08:35:08.916Z,6744
2016-08-20T08:36:08.920Z,6496
2016-08-20T08:37:08.923Z,6300
2016-08-20T08:38:08.928Z,6176
2016-08-20T08:39:08.933Z,6308
2016-08-20T08:40:08.940Z,6680
2016-08-20T08:41:08.944Z,7180
2016-08-20T08:42:08.220Z,7768
2016-08-20T08:43:08.948Z,8472
2016-08-20T08:44:08.233Z,9004
2016-08-20T08:45:08.960Z,9372
2016-08-20T08:46:08.244Z,9500
2016-08-20T08:47:08.969Z,9492
2016-08-20T08:48:08.255Z,9576
2016-08-20T08:49:08.984Z,9472
2016-08-20T08:50:08.988Z,9624
2016-08-20T08:51:08.985Z,9452
2016-08-20T08:52:08.277Z,9040
2016-08-20T08:53:08.992Z,8600
2016-08-20T08:54:08.996Z,8388
2016-08-20T08:55:08.999Z,8504
2016-08-20T08:56:09.007Z,8604
2016-08-20T08:57:09.008Z,8800
2016-08-20T08:58:09.020Z,8708
2016-08-20T08:59:09.021Z,8136
2016-08-20T09:00:09.025Z,7636
2016-08-20T09:01:09.029Z,7312
2016-08-20T09:02:09.035Z,7108
2016-08-20T09:03:09.037Z,6840
2016-08-20T09:04:09.041Z,6508
2016-08-20T09:05:09.045Z,6224
2016-08-20T09:06:09.057Z,6020
2016-08-20T09:07:06.893Z,5756
2016-08-20T09:08:09.060Z,5512
2016-08-20T09:09:07.620Z,5372
2016-08-20T09:10:08.344Z,5572
2016-08-20T09:11:08.349Z,5936
2016-08-20T09:12:09.077Z,6260
2016-08-20T09:13:09.090Z,6472
2016-08-20T09:14:09.085Z,6860
2016-08-20T09:15:09.105Z,7316
2016-08-20T09:16:09.090Z,7376
2016-08-20T09:17:09.092Z,7272
2016-08-20T09:18:07.669Z,7144
2016-08-20T09:19:09.115Z,7112
2016-08-20T09:20:09.125Z,7308
2016-08-20T09:21:09.117Z,7668
2016-08-20T09:22:09.113Z,7808
2016-08-20T09:23:09.121Z,7864
2016-08-20T09:24:08.410Z,7884
2016-08-20T09:25:08.409Z,7840
2016-08-20T09:26:09.141Z,7664
2016-08-20T09:27:08.418Z,7384
2016-08-20T09:28:09.141Z,6996
2016-08-20T09:29:09.145Z,6708
2016-08-20T09:30:09.149Z,6340
2016-08-20T09:31:08.438Z,5964
2016-08-20T09:32:08.442Z,5608
2016-08-20T09:33:09.165Z,5224
2016-08-20T09:34:09.174Z,4828
2016-08-20T09:35:09.169Z,4512
2016-08-20T09:36:08.470Z,4260
2016-08-20T09:37:08.462Z,4076
2016-08-20T09:38:09.181Z,3864
2016-08-20T09:39:09.193Z,3600
2016-08-20T09:40:09.189Z,3336
2016-08-20T09:41:08.474Z,3176
2016-08-20T09:42:08.481Z,3108
2016-08-20T09:43:08.481Z,3120
2016-08-20T09:44:09.206Z,3120
2016-08-20T09:45:08.498Z,3068
2016-08-20T09:46:09.210Z,3100
2016-08-20T09:47:09.214Z,3104
2016-08-20T09:48:07.794Z,3116
2016-08-20T09:49:09.222Z,3008
2016-08-20T09:50:08.506Z,2892
2016-08-20T09:51:09.243Z,2840
2016-08-20T09:52:09.241Z,2772
2016-08-20T09:53:08.526Z,2660
2016-08-20T09:54:08.526Z,2532
2016-08-20T09:55:09.242Z,2464
2016-08-20T09:56:09.245Z,2512
2016-08-20T09:57:08.529Z,2664
2016-08-20T09:58:09.255Z,2808
2016-08-20T09:59:07.814Z,2892
2016-08-20T10:00:08.546Z,2920
2016-08-20T10:01:09.266Z,2972
2016-08-20T10:02:09.270Z,3048
2016-08-20T10:03:09.275Z,3132
2016-08-20T10:04:07.838Z,3176
2016-08-20T10:05:09.278Z,3216
2016-08-20T10:06:09.283Z,3168
2016-08-20T10:07:08.567Z,3028
2016-08-20T10:08:09.291Z,2836
2016-08-20T10:09:08.580Z,2664
2016-08-20T10:10:09.294Z,2532
2016-08-20T10:11:09.298Z,2504
2016-08-20T10:12:09.305Z,2556
2016-08-20T10:13:08.582Z,2624
2016-08-20T10:14:09.311Z,2696
2016-08-20T10:15:09.315Z,2784
2016-08-20T10:16:08.594Z,2888
2016-08-20T10:17:09.319Z,2988
2016-08-20T10:18:09.323Z,3072
2016-08-20T10:19:08.608Z,3128
2016-08-20T10:20:09.331Z,3168
2016-08-20T10:21:09.330Z,3224
2016-08-20T10:22:09.335Z,3400
2016-08-20T10:23:09.345Z,3628
2016-08-20T10:24:09.341Z,3856
2016-08-20T10:25:09.351Z,4056
2016-08-20T10:26:08.627Z,4176
2016-08-20T10:27:09.367Z,4204
2016-08-20T10:28:09.352Z,4136
2016-08-20T10:29:09.355Z,4020
2016-08-20T10:30:08.640Z,3868
2016-08-20T10:31:09.363Z,3752
2016-08-20T10:32:08.676Z,3764
2016-08-20T10:33:08.707Z,3824
2016-08-20T10:34:09.375Z,3816
2016-08-20T10:35:08.656Z,3760
2016-08-20T10:36:08.654Z,3664
2016-08-20T10:37:07.949Z,3628
2016-08-20T10:38:09.384Z,3620
2016-08-20T10:39:09.388Z,3620
2016-08-20T10:40:09.392Z,3600
2016-08-20T10:41:07.957Z,3584
2016-08-20T10:42:09.400Z,3624
2016-08-20T10:43:08.691Z,3600
2016-08-20T10:44:08.695Z,3476
2016-08-20T10:45:09.404Z,3332
2016-08-20T10:46:09.412Z,3224
2016-08-20T10:47:09.408Z,3128
2016-08-20T10:48:09.412Z,3052
2016-08-20T10:49:08.699Z,3000
2016-08-20T10:50:07.980Z,2972
2016-08-20T10:51:09.423Z,2964
2016-08-20T10:52:09.424Z,3000
2016-08-20T10:53:09.428Z,3024
2016-08-20T10:54:09.428Z,3036
2016-08-20T10:55:09.436Z,3072
2016-08-20T10:56:09.435Z,3152
2016-08-20T10:57:08.000Z,3276
2016-08-20T10:58:09.440Z,3404
2016-08-20T10:59:08.724Z,3512
2016-08-20T11:00:09.456Z,3584
2016-08-20T11:01:08.728Z,3652
2016-08-20T11:02:09.456Z,3724
2016-08-20T11:03:09.456Z,3792
2016-08-20T11:04:09.456Z,3908
2016-08-20T11:05:09.462Z,4028
2016-08-20T11:06:08.020Z,4144
2016-08-20T11:07:09.472Z,4264
2016-08-20T11:08:09.469Z,4376
2016-08-20T11:09:08.033Z,4480
2016-08-20T11:10:08.757Z,4580
2016-08-20T11:11:08.757Z,4664
2016-08-20T11:12:09.476Z,4728
2016-08-20T11:13:09.480Z,4780
2016-08-20T11:14:09.489Z,4820
2016-08-20T11:15:08.769Z,4828
2016-08-20T11:16:08.049Z,4816
2016-08-20T11:17:08.053Z,4768
2016-08-20T11:18:08.064Z,4676
2016-08-20T11:19:08.782Z,4516
2016-08-20T11:20:09.513Z,4300
2016-08-20T11:21:09.502Z,4084
2016-08-20T11:22:09.501Z,3896
2016-08-20T11:23:09.514Z,3740
2016-08-20T11:24:09.509Z,3604
2016-08-20T11:25:08.793Z,3508
2016-08-20T11:26:09.518Z,3436
2016-08-20T11:27:09.513Z,3372
2016-08-20T11:28:08.806Z,3320
2016-08-20T11:29:09.533Z,3272
2016-08-20T11:30:08.089Z,3224
2016-08-20T11:31:09.550Z,3156
2016-08-20T11:32:09.533Z,3064
2016-08-20T11:33:08.817Z,2996
2016-08-20T11:34:09.538Z,2984
2016-08-20T11:35:09.537Z,3040
2016-08-20T11:36:08.101Z,3100
2016-08-20T11:37:09.546Z,3136
2016-08-20T11:38:08.829Z,3148
2016-08-20T11:39:09.550Z,3168
2016-08-20T11:40:09.553Z,3196
2016-08-20T11:41:08.850Z,3272
2016-08-20T11:42:09.559Z,3344
2016-08-20T11:43:09.563Z,3332
2016-08-20T11:44:09.566Z,3212
2016-08-20T11:45:09.581Z,3056
2016-08-20T11:46:09.579Z,2864
2016-08-20T11:47:08.849Z,2712
2016-08-20T11:48:09.582Z,2612
2016-08-20T11:49:08.859Z,2592
2016-08-20T11:50:09.579Z,2612
2016-08-20T11:51:09.582Z,2664
2016-08-20T11:52:08.876Z,2700
2016-08-20T11:53:09.586Z,2712
2016-08-20T11:54:09.590Z,2724
2016-08-20T11:55:08.895Z,2724
2016-08-20T11:56:08.875Z,2732
2016-08-20T11:57:09.599Z,2784
2016-08-20T11:58:08.890Z,2888
2016-08-20T11:59:09.603Z,2980
2016-08-20T12:00:09.603Z,3132
2016-08-20T12:01:09.607Z,3356
2016-08-20T12:02:09.611Z,3556
2016-08-20T12:03:08.892Z,3696
2016-08-20T12:04:09.615Z,3816
2016-08-20T12:05:09.623Z,3948
2016-08-20T12:06:09.619Z,4000
2016-08-20T12:07:08.903Z,4100
2016-08-20T12:08:09.627Z,4284
2016-08-20T12:09:09.628Z,4396
2016-08-20T12:10:09.635Z,4316
2016-08-20T12:11:08.912Z,4024
2016-08-20T12:12:09.635Z,3664
2016-08-20T12:13:09.640Z,3456
2016-08-20T12:14:09.640Z,3328
2016-08-20T12:15:09.644Z,3372
2016-08-20T12:16:08.929Z,3520
2016-08-20T12:17:09.647Z,3648
2016-08-20T12:18:09.652Z,3796
2016-08-20T12:19:08.935Z,3936
2016-08-20T12:20:09.672Z,4004
2016-08-20T12:21:08.944Z,4104
2016-08-20T12:22:09.661Z,4228
2016-08-20T12:23:09.668Z,4452
2016-08-20T12:24:09.669Z,4664
2016-08-20T12:25:09.668Z,4708
2016-08-20T12:26:08.968Z,4688
2016-08-20T12:27:08.957Z,4764
2016-08-20T12:28:09.680Z,4748
2016-08-20T12:29:08.960Z,4820
2016-08-20T12:30:08.965Z,4824
2016-08-20T12:31:09.684Z,4736
2016-08-20T12:32:09.689Z,4552
2016-08-20T12:33:08.968Z,4460
2016-08-20T12:34:08.973Z,4456
2016-08-20T12:35:08.977Z,4380
2016-08-20T12:36:09.709Z,4360
2016-08-20T12:37:09.706Z,4356
2016-08-20T12:38:09.712Z,4300
2016-08-20T12:39:08.989Z,4200
2016-08-20T12:40:09.708Z,4092
2016-08-20T12:41:09.721Z,4036
2016-08-20T12:42:09.721Z,3996
2016-08-20T12:43:09.721Z,3916
2016-08-20T12:44:09.722Z,3832
2016-08-20T12:45:09.726Z,3772
2016-08-20T12:46:09.725Z,3656
2016-08-20T12:47:09.014Z,3556
2016-08-20T12:48:09.729Z,3484
2016-08-20T12:49:09.021Z,3516
2016-08-20T12:50:09.745Z,3596
2016-08-20T12:51:09.018Z,3668
2016-08-20T12:52:09.741Z,3712
2016-08-20T12:53:09.746Z,3604
2016-08-20T12:54:09.745Z,3536
2016-08-20T12:55:09.753Z,3572
2016-08-20T12:56:09.033Z,3716
2016-08-20T12:57:09.754Z,3936
2016-08-20T12:58:09.042Z,4148
2016-08-20T12:59:09.762Z,4268
2016-08-20T13:00:09.042Z,4328
2016-08-20T13:01:09.765Z,4368
2016-08-20T13:02:08.329Z,4344
2016-08-20T13:03:09.770Z,4392
2016-08-20T13:04:09.772Z,4504
2016-08-20T13:05:09.062Z,4620
2016-08-20T13:06:09.786Z,4736
2016-08-20T13:07:09.782Z,4764
2016-08-20T13:08:09.786Z,4732
2016-08-20T13:09:09.785Z,4616
2016-08-20T13:10:09.070Z,4492
2016-08-20T13:11:10.010Z,4372
2016-08-20T13:12:09.795Z,4196
2016-08-20T13:13:09.077Z,3840
2016-08-20T13:14:09.085Z,3500
2016-08-20T13:15:09.807Z,3224
2016-08-20T13:16:09.806Z,3028
2016-08-20T13:17:09.090Z,2892
2016-08-20T13:18:09.099Z,2828
2016-08-20T13:19:09.094Z,2828
2016-08-20T13:20:09.818Z,2924
2016-08-20T13:21:09.817Z,3052
2016-08-20T13:22:09.821Z,3164
2016-08-20T13:23:09.827Z,3236
2016-08-20T13:24:09.110Z,3212
2016-08-20T13:25:09.830Z,3156
2016-08-20T13:26:09.834Z,3076
2016-08-20T13:27:09.839Z,3008
2016-08-20T13:28:09.838Z,2928
2016-08-20T13:29:09.842Z,2856
2016-08-20T13:30:09.126Z,2812
2016-08-20T13:31:08.406Z,2824
2016-08-20T13:32:09.131Z,2896
2016-08-20T13:33:09.234Z,2944
2016-08-20T13:34:09.863Z,2940
2016-08-20T13:35:09.858Z,2900
2016-08-20T13:36:09.859Z,2828
2016-08-20T13:37:09.862Z,2752
2016-08-20T13:38:09.163Z,2752
2016-08-20T13:39:09.867Z,2752
2016-08-20T13:40:09.870Z,2716
2016-08-20T13:41:09.170Z,2732
2016-08-20T13:42:09.155Z,2756